Zodiac — WTH5653 — position and weather

sailwx.info

Track history (hours):
 
Tides and Currents Weather Stations Pressure Air Temp Water Temp Dewpoint Dewpoint Depression Visibility Wind Speed Wind Dir Waves Ship Positions

Zodiac

Ship's website: http://www.schoonerzodiac.com/

Owner: VESSEL ZODIAC CORP, Bellingham, WA. More information available from US FCC via Universal Licensing System and Coast Guard Vessel Documentation Center.

Last reported at 2017-May-23 04:19 UTC. Time now 2017-May-23 04:56 UTC.
Position N 48°43' W 122°31'.

Type: Sailing vessel. MMSI: 366968070.

Date/timePositionNaut miles runAvg speedWind from/ knotsBaromVisibWave heightAir tempDewpointWater temp
2017-May-23 04:19N 48°43' W 122°31'0 0.0
2017-May-23 03:55N 48°43' W 122°31'0 0.0
2017-May-23 03:04N 48°43' W 122°31'0 0.0
2017-May-23 02:55N 48°43' W 122°31'0 0.0
2017-May-23 02:25N 48°43' W 122°31'0 0.0
2017-May-23 01:55N 48°43' W 122°31'0 0.0
2017-May-23 01:25N 48°43' W 122°31'0 0.0
2017-May-23 00:55N 48°43' W 122°31'0 0.0
2017-May-23 00:25N 48°43' W 122°31'0 0.0
2017-May-22 23:55N 48°43' W 122°31'0 0.0
2017-May-22 23:28N 48°43' W 122°31'0 0.0
2017-May-22 22:58N 48°43' W 122°31'0 0.0
2017-May-22 22:25N 48°43' W 122°31'0 0.0
2017-May-22 21:55N 48°43' W 122°31'0 0.0
2017-May-22 21:25N 48°43' W 122°31'0 0.0
2017-May-22 20:49N 48°43' W 122°31'0 0.0
2017-May-22 20:22N 48°43' W 122°31'0 0.0
2017-May-22 19:55N 48°43' W 122°31'0 0.0
2017-May-22 19:28N 48°43' W 122°31'0 0.0
2017-May-22 18:43N 48°43' W 122°31'0 0.0
2017-May-22 18:01N 48°43' W 122°31'0 0.0
2017-May-22 17:58N 48°43' W 122°31'0 0.0
2017-May-22 17:25N 48°43' W 122°31'0 0.0
2017-May-22 16:55N 48°43' W 122°31'0 0.0
2017-May-22 16:25N 48°43' W 122°31'0 0.0
2017-May-22 15:58N 48°43' W 122°31'0 0.0
2017-May-22 15:25N 48°43' W 122°31'0 0.0
2017-May-22 14:55N 48°43' W 122°31'0 0.0
2017-May-22 13:55N 48°43' W 122°31'0 0.0
2017-May-22 13:22N 48°43' W 122°31'0 0.0
2017-May-22 12:55N 48°43' W 122°31'0 0.0
2017-May-22 12:25N 48°43' W 122°31'0 0.0
2017-May-22 11:55N 48°43' W 122°31'0 0.0
2017-May-22 11:25N 48°43' W 122°31'0 0.0
2017-May-22 10:58N 48°43' W 122°31'0 0.0
2017-May-22 10:28N 48°43' W 122°31'0 0.0
2017-May-22 09:55N 48°43' W 122°31'0 0.0
2017-May-22 09:28N 48°43' W 122°31'0 0.0
2017-May-22 08:58N 48°43' W 122°31'0 0.0
2017-May-22 08:19N 48°43' W 122°31'0 0.0
2017-May-22 07:55N 48°43' W 122°31'0 0.0
2017-May-22 07:25N 48°43' W 122°31'0 0.0
2017-May-22 06:58N 48°43' W 122°31'0 0.0
2017-May-22 06:28N 48°43' W 122°31'0 0.0
2017-May-22 05:55N 48°43' W 122°31'0 0.0
2017-May-22 05:22N 48°43' W 122°31'0 0.0
2017-May-22 04:58N 48°43' W 122°31'0 0.0
2017-May-22 04:25N 48°43' W 122°31'0 0.0
2017-May-22 03:49N 48°43' W 122°31'0 0.0
2017-May-22 03:25N 48°43' W 122°31'0 0.0
2017-May-22 02:55N 48°43' W 122°31'0 0.0
2017-May-22 02:25N 48°43' W 122°31'0 0.0
2017-May-22 01:58N 48°43' W 122°31'0 0.0
2017-May-22 01:25N 48°43' W 122°31'0 0.0
2017-May-22 00:55N 48°43' W 122°31'0 0.0
2017-May-22 00:25N 48°43' W 122°31'0 0.0
2017-May-21 23:55N 48°43' W 122°31'0 0.0
2017-May-21 23:28N 48°43' W 122°31'0 0.0
2017-May-21 22:55N 48°43' W 122°31'0 0.0
2017-May-21 22:25N 48°43' W 122°31'0 0.1
2017-May-21 22:00N 48°43' W 122°31'2 4.2
2017-May-21 21:30N 48°42' W 122°33'3 5.4
2017-May-21 21:00N 48°39' W 122°33'2 4.5
2017-May-21 20:30N 48°38' W 122°37'3 6.4
2017-May-21 20:00N 48°40' W 122°41'2 4.3
2017-May-21 19:30N 48°40' W 122°44'2 4.5
2017-May-21 19:00N 48°41' W 122°48'1 2.5
2017-May-21 18:30N 48°42' W 122°48'2 3.0
2017-May-21 18:00N 48°43' W 122°50'4 1.7
2017-May-21 15:46N 48°46' W 122°54'0 0.0
2017-May-21 11:46N 48°46' W 122°54'0 0.0
2017-May-21 10:43N 48°46' W 122°54'0 0.0
2017-May-21 07:40N 48°46' W 122°54'0 0.0
2017-May-21 06:28N 48°46' W 122°54'0 0.0
2017-May-21 05:40N 48°46' W 122°54'0 0.0
2017-May-21 05:22N 48°46' W 122°54'0 0.0
2017-May-21 04:01N 48°46' W 122°54'0 0.1
2017-May-21 03:55N 48°46' W 122°54'0 0.0
2017-May-20 23:55N 48°46' W 122°54'0 0.1
2017-May-20 23:30N 48°46' W 122°54'0 0.1
2017-May-20 22:59N 48°46' W 122°54'2 4.8
2017-May-20 22:30N 48°44' W 122°56'3 6.0
2017-May-20 22:00N 48°42' W 122°59'2 4.6
2017-May-20 21:30N 48°40' W 123°00'3 5.8
2017-May-20 21:00N 48°37' W 123°02'3 6.0
2017-May-20 20:30N 48°34' W 123°02'1 1.7
2017-May-20 20:00N 48°34' W 123°01'1 1.2
2017-May-20 19:30N 48°34' W 123°00'1 1.9
2017-May-20 19:00N 48°33' W 122°59'1 2.0
2017-May-20 18:30N 48°33' W 122°58'1 2.0
2017-May-20 18:00N 48°32' W 122°57'2 4.9
2017-May-20 17:30N 48°34' W 122°54'2 4.5
2017-May-20 17:00N 48°35' W 122°51'1 1.2
2017-May-20 16:30N 48°34' W 122°52'2 3.2
2017-May-20 16:00N 48°33' W 122°51'0 0.6
2017-May-20 15:30N 48°32' W 122°51'0 0.0
2017-May-20 14:57N 48°32' W 122°51'0 0.0
2017-May-20 14:30N 48°32' W 122°51'0 0.0
2017-May-20 13:27N 48°32' W 122°51'0 0.0
2017-May-20 13:00N 48°32' W 122°51'0 0.0
2017-May-20 12:30N 48°32' W 122°51'0 0.0
2017-May-20 12:00N 48°32' W 122°51'0 0.0
2017-May-20 11:30N 48°32' W 122°51'0 0.0
2017-May-20 10:57N 48°32' W 122°51'0 0.0
2017-May-20 10:30N 48°32' W 122°51'0 0.0
2017-May-20 10:00N 48°32' W 122°51'0 0.0
2017-May-20 09:30N 48°32' W 122°51'0 0.0
2017-May-20 09:00N 48°32' W 122°51'0 0.0
2017-May-20 08:30N 48°32' W 122°51'0 0.0
2017-May-20 08:00N 48°32' W 122°51'0 0.0
2017-May-20 07:30N 48°32' W 122°51'0 0.0
2017-May-20 06:57N 48°32' W 122°51'0 0.0
2017-May-20 06:30N 48°32' W 122°51'0 0.0
2017-May-20 06:00N 48°32' W 122°51'0 0.0
2017-May-20 05:30N 48°32' W 122°51'0 0.0
2017-May-20 05:00N 48°32' W 122°51'0 0.0
2017-May-20 04:24N 48°32' W 122°51'0 0.0
2017-May-20 03:51N 48°32' W 122°51'0 0.0
2017-May-20 03:30N 48°32' W 122°51'0 0.0
2017-May-20 03:00N 48°32' W 122°51'0 0.0
2017-May-20 02:30N 48°32' W 122°51'0 0.0
2017-May-20 01:57N 48°32' W 122°51'0 0.0
2017-May-20 01:24N 48°32' W 122°51'0 0.0
2017-May-20 00:57N 48°32' W 122°51'0 0.0
2017-May-20 00:25N 48°32' W 122°51'0 0.0
2017-May-19 23:51N 48°32' W 122°51'0 0.0
2017-May-19 23:30N 48°32' W 122°51'1 2.6
2017-May-19 23:01N 48°34' W 122°50'1 2.9
2017-May-19 22:31N 48°35' W 122°50'3 5.4
2017-May-19 22:01N 48°36' W 122°46'1 2.5
2017-May-19 21:31N 48°37' W 122°44'2 3.8
2017-May-19 21:01N 48°38' W 122°42'1 2.7
2017-May-19 20:30N 48°39' W 122°41'1 2.0
2017-May-19 20:01N 48°40' W 122°40'1 1.9
2017-May-19 19:30N 48°39' W 122°41'1 1.7
2017-May-19 19:00N 48°39' W 122°40'1 2.2
2017-May-19 18:31N 48°39' W 122°38'3 5.8
2017-May-19 18:00N 48°39' W 122°34'5 9.0
2017-May-19 17:30N 48°43' W 122°31'0 0.5
2017-May-19 16:59N 48°43' W 122°31'0 0.0
2017-May-19 16:29N 48°43' W 122°31'0 0.0
2017-May-19 15:53N 48°43' W 122°31'0 0.0
2017-May-19 15:29N 48°43' W 122°31'0 0.0
2017-May-19 14:59N 48°43' W 122°31'0 0.0
2017-May-19 13:59N 48°43' W 122°31'0 0.0
2017-May-19 13:29N 48°43' W 122°31'0 0.0
2017-May-19 12:41N 48°43' W 122°31'0 0.0
2017-May-19 12:29N 48°43' W 122°31'0 0.0
2017-May-19 11:53N 48°43' W 122°31'0 0.0
2017-May-19 11:29N 48°43' W 122°31'0 0.0
2017-May-19 10:59N 48°43' W 122°31'0 0.0
2017-May-19 10:29N 48°43' W 122°31'0 0.0
2017-May-19 09:59N 48°43' W 122°31'0 0.0
2017-May-19 09:29N 48°43' W 122°31'0 0.0
2017-May-19 08:59N 48°43' W 122°31'0 0.0
2017-May-19 08:23N 48°43' W 122°31'0 0.0
2017-May-19 07:53N 48°43' W 122°31'0 0.0
2017-May-19 07:23N 48°43' W 122°31'0 0.0
2017-May-19 06:41N 48°43' W 122°31'0 0.0
2017-May-19 06:29N 48°43' W 122°31'0 0.0
2017-May-19 05:59N 48°43' W 122°31'0 0.0
2017-May-19 05:29N 48°43' W 122°31'0 0.0
2017-May-19 04:59N 48°43' W 122°31'0 0.0
2017-May-19 04:29N 48°43' W 122°31'0 0.0
2017-May-19 03:41N 48°43' W 122°31'0 0.0
2017-May-19 03:23N 48°43' W 122°31'0 0.0
2017-May-19 02:59N 48°43' W 122°31'0 0.0
2017-May-19 02:29N 48°43' W 122°31'0 0.0
2017-May-19 01:53N 48°43' W 122°31'0 0.0
2017-May-19 01:29N 48°43' W 122°31'0 0.0
2017-May-19 00:53N 48°43' W 122°31'0 0.0
2017-May-19 00:29N 48°43' W 122°31'0 0.0
2017-May-18 23:53N 48°43' W 122°31'0 0.0
2017-May-18 23:23N 48°43' W 122°31'0 0.0
2017-May-18 22:59N 48°43' W 122°31'0 0.0
2017-May-18 22:23N 48°43' W 122°31'0 0.0
2017-May-18 21:59N 48°43' W 122°31'0 0.0
2017-May-18 21:29N 48°43' W 122°31'0 0.0
2017-May-18 20:59N 48°43' W 122°31'0 0.0
2017-May-18 20:29N 48°43' W 122°31'0 0.0
2017-May-18 19:59N 48°43' W 122°31'0 0.0
2017-May-18 19:29N 48°43' W 122°31'0 0.0
2017-May-18 18:59N 48°43' W 122°31'0 0.0
2017-May-18 18:29N 48°43' W 122°31'0 0.0
2017-May-18 17:53N 48°43' W 122°31'0 0.0
2017-May-18 17:23N 48°43' W 122°31'0 0.0
2017-May-18 16:41N 48°43' W 122°31'0 0.0
2017-May-18 16:29N 48°43' W 122°31'0 0.0
2017-May-18 15:59N 48°43' W 122°31'0 0.0
2017-May-18 15:29N 48°43' W 122°31'0 0.0
2017-May-18 14:53N 48°43' W 122°31'0 0.0
2017-May-18 14:29N 48°43' W 122°31'0 0.0
2017-May-18 13:29N 48°43' W 122°31'0 0.0
2017-May-18 12:59N 48°43' W 122°31'0 0.0
2017-May-18 12:29N 48°43' W 122°31'0 0.0
2017-May-18 11:59N 48°43' W 122°31'0 0.0
2017-May-18 11:23N 48°43' W 122°31'0 0.0
2017-May-18 10:59N 48°43' W 122°31'0 0.0
2017-May-18 10:29N 48°43' W 122°31'0 0.0
2017-May-18 09:59N 48°43' W 122°31'0 0.0
2017-May-18 09:29N 48°43' W 122°31'0 0.0
2017-May-18 08:59N 48°43' W 122°31'0 0.0
2017-May-18 08:29N 48°43' W 122°31'0 0.0
2017-May-18 07:53N 48°43' W 122°31'0 0.0
2017-May-18 07:29N 48°43' W 122°31'0 0.0
2017-May-18 06:59N 48°43' W 122°31'0 0.0
2017-May-18 06:29N 48°43' W 122°31'0 0.0
2017-May-18 05:59N 48°43' W 122°31'0 0.0
2017-May-18 05:29N 48°43' W 122°31'0 0.0
2017-May-18 04:53N 48°43' W 122°31'0 0.0
2017-May-18 04:29N 48°43' W 122°31'0 0.0
2017-May-18 03:59N 48°43' W 122°31'0 0.0
2017-May-18 03:29N 48°43' W 122°31'0 0.0
2017-May-18 02:53N 48°43' W 122°31'0 0.0
2017-May-18 02:23N 48°43' W 122°31'0 0.0
2017-May-18 01:59N 48°43' W 122°31'0 0.0
2017-May-18 01:29N 48°43' W 122°31'0 0.0
2017-May-18 00:59N 48°43' W 122°31'0 0.0
2017-May-18 00:23N 48°43' W 122°31'0 0.1
2017-May-17 23:41N 48°43' W 122°31'0 0.8
2017-May-17 23:29N 48°43' W 122°31'2 4.0
2017-May-17 22:55N 48°41' W 122°31'0 0.0
2017-May-17 22:13N 48°41' W 122°31'0 0.0
2017-May-17 21:58N 48°41' W 122°31'0 0.0
2017-May-17 21:07N 48°41' W 122°31'0 0.0
2017-May-17 20:55N 48°41' W 122°31'0 0.0
2017-May-17 20:28N 48°41' W 122°31'0 0.0
2017-May-17 19:55N 48°41' W 122°31'0 0.0
2017-May-17 19:28N 48°41' W 122°31'0 0.9
2017-May-17 19:00N 48°42' W 122°31'2 3.2
2017-May-17 18:25N 48°43' W 122°31'0 0.0
2017-May-17 17:58N 48°43' W 122°31'0 0.0
2017-May-17 17:10N 48°43' W 122°31'0 0.0
2017-May-17 16:58N 48°43' W 122°31'0 0.0
2017-May-17 16:10N 48°43' W 122°31'0 0.0
2017-May-17 15:58N 48°43' W 122°31'0 0.0
2017-May-17 15:28N 48°43' W 122°31'0 0.0
2017-May-17 14:58N 48°43' W 122°31'0 0.0
2017-May-17 13:58N 48°43' W 122°31'0 0.0
2017-May-17 13:28N 48°43' W 122°31'0 0.0
2017-May-17 12:58N 48°43' W 122°31'0 0.0
2017-May-17 12:28N 48°43' W 122°31'0 0.0
2017-May-17 11:58N 48°43' W 122°31'0 0.0
2017-May-17 11:22N 48°43' W 122°31'0 0.0
2017-May-17 10:58N 48°43' W 122°31'0 0.0
2017-May-17 10:28N 48°43' W 122°31'0 0.0
2017-May-17 09:58N 48°43' W 122°31'0 0.0
2017-May-17 09:28N 48°43' W 122°31'0 0.0
2017-May-17 08:58N 48°43' W 122°31'0 0.0
2017-May-17 08:28N 48°43' W 122°31'0 0.0
2017-May-17 07:58N 48°43' W 122°31'0 0.0
2017-May-17 07:28N 48°43' W 122°31'0 0.0
2017-May-17 06:58N 48°43' W 122°31'0 0.0
2017-May-17 06:28N 48°43' W 122°31'0 0.0
2017-May-17 05:58N 48°43' W 122°31'0 0.0
2017-May-17 05:28N 48°43' W 122°31'0 0.0
2017-May-17 04:58N 48°43' W 122°31'0 0.0
2017-May-17 04:28N 48°43' W 122°31'0 0.0
2017-May-17 03:58N 48°43' W 122°31'0 0.0
2017-May-17 03:28N 48°43' W 122°31'0 0.0
2017-May-17 02:58N 48°43' W 122°31'0 0.0
2017-May-17 02:28N 48°43' W 122°31'0 0.0
2017-May-17 01:58N 48°43' W 122°31'0 0.0
2017-May-17 01:28N 48°43' W 122°31'0 0.0
2017-May-17 00:58N 48°43' W 122°31'0 0.0
2017-May-17 00:28N 48°43' W 122°31'0 0.0
2017-May-16 23:58N 48°43' W 122°31'0 0.0
2017-May-16 23:28N 48°43' W 122°31'0 0.0
2017-May-16 22:58N 48°43' W 122°31'0 0.0
2017-May-16 22:28N 48°43' W 122°31'0 0.0
2017-May-16 21:58N 48°43' W 122°31'0 0.0
2017-May-16 21:28N 48°43' W 122°31'0 0.0
2017-May-16 20:40N 48°43' W 122°31'0 0.0
2017-May-16 20:28N 48°43' W 122°31'0 0.0
2017-May-16 19:58N 48°43' W 122°31'0 0.0
2017-May-16 19:28N 48°43' W 122°31'0 0.0
2017-May-16 18:58N 48°43' W 122°31'0 0.0
2017-May-16 18:10N 48°43' W 122°31'0 0.0
2017-May-16 17:58N 48°43' W 122°31'0 0.0
2017-May-16 17:22N 48°43' W 122°31'0 0.0
2017-May-16 16:58N 48°43' W 122°31'0 0.0
2017-May-16 16:28N 48°43' W 122°31'0 0.0
2017-May-16 15:34N 48°43' W 122°31'0 0.0
2017-May-16 15:22N 48°43' W 122°31'0 0.0
2017-May-16 14:58N 48°43' W 122°31'0 0.0
2017-May-16 13:58N 48°43' W 122°31'0 0.0
2017-May-16 13:28N 48°43' W 122°31'0 0.0
2017-May-16 12:40N 48°43' W 122°31'0 0.0
2017-May-16 12:28N 48°43' W 122°31'0 0.0
2017-May-16 11:58N 48°43' W 122°31'0 0.0
2017-May-16 11:28N 48°43' W 122°31'0 0.0
2017-May-16 10:58N 48°43' W 122°31'0 0.0
2017-May-16 10:28N 48°43' W 122°31'0 0.0
2017-May-16 09:52N 48°43' W 122°31'0 0.0
2017-May-16 09:28N 48°43' W 122°31'0 0.0
2017-May-16 08:58N 48°43' W 122°31'0 0.0
2017-May-16 08:10N 48°43' W 122°31'0 0.0
2017-May-16 07:58N 48°43' W 122°31'0 0.0
2017-May-16 07:10N 48°43' W 122°31'0 0.0
2017-May-16 06:58N 48°43' W 122°31'0 0.0
2017-May-16 06:28N 48°43' W 122°31'0 0.0
2017-May-16 05:58N 48°43' W 122°31'0 0.0
2017-May-16 05:10N 48°43' W 122°31'0 0.0
2017-May-16 04:58N 48°43' W 122°31'0 0.0
2017-May-16 04:28N 48°43' W 122°31'0 0.0
2017-May-16 03:58N 48°43' W 122°31'0 0.0
2017-May-16 03:22N 48°43' W 122°31'0 0.0
2017-May-16 02:52N 48°43' W 122°31'0 0.0
2017-May-16 02:28N 48°43' W 122°31'0 0.0
2017-May-16 01:40N 48°43' W 122°31'0 0.0
2017-May-16 01:22N 48°43' W 122°31'0 0.0
2017-May-16 00:58N 48°43' W 122°31'0 0.0
2017-May-16 00:28N 48°43' W 122°31'0 0.0
2017-May-15 23:52N 48°43' W 122°31'0 0.0
2017-May-15 23:10N 48°43' W 122°31'0 0.0
2017-May-15 22:52N 48°43' W 122°31'0 0.0
2017-May-15 22:28N 48°43' W 122°31'0 0.0
2017-May-15 21:52N 48°43' W 122°31'0 0.0
2017-May-15 21:28N 48°43' W 122°31'0 0.0
2017-May-15 20:58N 48°43' W 122°31'0 0.0
2017-May-15 20:28N 48°43' W 122°31'0 0.0
2017-May-15 19:58N 48°43' W 122°31'0 0.0
2017-May-15 19:22N 48°43' W 122°31'0 0.0
2017-May-15 18:52N 48°43' W 122°31'0 0.0
2017-May-15 18:22N 48°43' W 122°31'0 0.0
2017-May-15 17:52N 48°43' W 122°31'0 0.0
2017-May-15 17:28N 48°43' W 122°31'0 0.0
2017-May-15 16:58N 48°43' W 122°31'0 0.0
2017-May-15 16:19N 48°43' W 122°31'0 0.0
2017-May-15 15:52N 48°43' W 122°31'0 0.0
2017-May-15 15:28N 48°43' W 122°31'0 0.0
2017-May-15 14:58N 48°43' W 122°31'0 0.0
2017-May-15 13:58N 48°43' W 122°31'0 0.0
2017-May-15 13:28N 48°43' W 122°31'0 0.0
2017-May-15 12:52N 48°43' W 122°31'0 0.0
2017-May-15 12:28N 48°43' W 122°31'0 0.0
2017-May-15 11:58N 48°43' W 122°31'0 0.0
2017-May-15 11:28N 48°43' W 122°31'0 0.0
2017-May-15 10:58N 48°43' W 122°31'0 0.0
2017-May-15 10:22N 48°43' W 122°31'0 0.0
2017-May-15 09:58N 48°43' W 122°31'0 0.0
2017-May-15 09:28N 48°43' W 122°31'0 0.0
2017-May-15 08:58N 48°43' W 122°31'0 0.0
2017-May-15 08:28N 48°43' W 122°31'0 0.0
2017-May-15 07:58N 48°43' W 122°31'0 0.0
2017-May-15 07:22N 48°43' W 122°31'0 0.0
2017-May-15 06:52N 48°43' W 122°31'0 0.0
2017-May-15 06:22N 48°43' W 122°31'0 0.0
2017-May-15 05:52N 48°43' W 122°31'0 0.0
2017-May-15 05:28N 48°43' W 122°31'0 0.0
2017-May-15 04:52N 48°43' W 122°31'0 0.0
2017-May-15 04:28N 48°43' W 122°31'0 0.0
2017-May-15 03:58N 48°43' W 122°31'0 0.0
2017-May-15 03:28N 48°43' W 122°31'0 0.0
2017-May-15 02:52N 48°43' W 122°31'0 0.0
2017-May-15 02:28N 48°43' W 122°31'0 0.0
2017-May-15 01:58N 48°43' W 122°31'0 0.0
2017-May-15 01:22N 48°43' W 122°31'0 0.0
2017-May-15 00:58N 48°43' W 122°31'0 0.0
2017-May-15 00:28N 48°43' W 122°31'0 0.0
2017-May-14 23:58N 48°43' W 122°31'0 0.0
2017-May-14 23:28N 48°43' W 122°31'0 0.0
2017-May-14 22:58N 48°43' W 122°31'0 0.0
2017-May-14 22:22N 48°43' W 122°31'0 0.0
2017-May-14 21:52N 48°43' W 122°31'0 0.0
2017-May-14 21:28N 48°43' W 122°31'0 0.0
2017-May-14 21:00N 48°43' W 122°31'0 0.0
2017-May-14 20:30N 48°43' W 122°31'1 1.3
2017-May-14 19:54N 48°43' W 122°32'1 3.0
2017-May-14 19:30N 48°42' W 122°33'2 4.7
2017-May-14 19:00N 48°40' W 122°30'1 2.7
2017-May-14 18:29N 48°40' W 122°32'1 1.1
2017-May-14 18:00N 48°41' W 122°33'2 3.7
2017-May-14 17:30N 48°42' W 122°32'1 1.9
2017-May-14 16:53N 48°43' W 122°31'0 0.0
2017-May-14 16:23N 48°43' W 122°31'0 0.0
2017-May-14 15:59N 48°43' W 122°31'0 0.0
2017-May-14 15:29N 48°43' W 122°31'0 0.0
2017-May-14 14:59N 48°43' W 122°31'0 0.0
2017-May-14 14:29N 48°43' W 122°31'0 0.0
2017-May-14 13:29N 48°43' W 122°31'0 0.0
2017-May-14 12:59N 48°43' W 122°31'0 0.0
2017-May-14 12:29N 48°43' W 122°31'0 0.0
2017-May-14 11:59N 48°43' W 122°31'0 0.0
2017-May-14 11:20N 48°43' W 122°31'0 0.0
2017-May-14 10:59N 48°43' W 122°31'0 0.0
2017-May-14 10:29N 48°43' W 122°31'0 0.0
2017-May-14 09:50N 48°43' W 122°31'0 0.0
2017-May-14 09:29N 48°43' W 122°31'0 0.0
2017-May-14 08:59N 48°43' W 122°31'0 0.0
2017-May-14 08:20N 48°43' W 122°31'0 0.0
2017-May-14 07:59N 48°43' W 122°31'0 0.0
2017-May-14 07:23N 48°43' W 122°31'0 0.0
2017-May-14 06:59N 48°43' W 122°31'0 0.0
2017-May-14 06:23N 48°43' W 122°31'0 0.0
2017-May-14 05:59N 48°43' W 122°31'0 0.0
2017-May-14 05:29N 48°43' W 122°31'0 0.0
2017-May-14 04:50N 48°43' W 122°31'0 0.0
2017-May-14 04:29N 48°43' W 122°31'0 0.0
2017-May-14 03:53N 48°43' W 122°31'0 0.0
2017-May-14 03:29N 48°43' W 122°31'0 0.0
2017-May-14 02:50N 48°43' W 122°31'0 0.0
2017-May-14 02:29N 48°43' W 122°31'0 0.0
2017-May-14 01:59N 48°43' W 122°31'0 0.0
2017-May-14 01:29N 48°43' W 122°31'0 0.0
2017-May-14 00:53N 48°43' W 122°31'0 0.0
2017-May-14 00:29N 48°43' W 122°31'0 0.0
2017-May-13 23:59N 48°43' W 122°31'0 0.0
2017-May-13 23:29N 48°43' W 122°31'0 0.0
2017-May-13 22:59N 48°43' W 122°31'0 0.0
2017-May-13 22:29N 48°43' W 122°31'0 0.0
2017-May-13 21:59N 48°43' W 122°31'0 0.0
2017-May-13 21:29N 48°43' W 122°31'0 0.0
2017-May-13 20:53N 48°43' W 122°31'0 0.0
2017-May-13 20:29N 48°43' W 122°31'0 0.0
2017-May-13 19:53N 48°43' W 122°31'0 0.0
2017-May-13 19:29N 48°43' W 122°31'0 0.0
2017-May-13 18:59N 48°43' W 122°31'0 0.0
2017-May-13 18:23N 48°43' W 122°31'0 0.0
2017-May-13 17:59N 48°43' W 122°31'0 0.0
2017-May-13 17:23N 48°43' W 122°31'0 0.0
2017-May-13 16:59N 48°43' W 122°31'0 0.0
2017-May-13 16:29N 48°43' W 122°31'0 0.0
2017-May-13 15:53N 48°43' W 122°31'0 0.0
2017-May-13 15:29N 48°43' W 122°31'0 0.0
2017-May-13 14:50N 48°43' W 122°31'0 0.0
2017-May-13 14:29N 48°43' W 122°31'0 0.0
2017-May-13 13:29N 48°43' W 122°31'0 0.0
2017-May-13 12:59N 48°43' W 122°31'0 0.0
2017-May-13 12:23N 48°43' W 122°31'0 0.0
2017-May-13 11:50N 48°43' W 122°31'0 0.0
2017-May-13 11:29N 48°43' W 122°31'0 0.0
2017-May-13 10:59N 48°43' W 122°31'0 0.0
2017-May-13 10:29N 48°43' W 122°31'0 0.0
2017-May-13 09:53N 48°43' W 122°31'0 0.0
2017-May-13 09:29N 48°43' W 122°31'0 0.0
2017-May-13 08:59N 48°43' W 122°31'0 0.0
2017-May-13 08:23N 48°43' W 122°31'0 0.0
2017-May-13 07:59N 48°43' W 122°31'0 0.0
2017-May-13 07:29N 48°43' W 122°31'0 0.0
2017-May-13 06:59N 48°43' W 122°31'0 0.0
2017-May-13 06:23N 48°43' W 122°31'0 0.0
2017-May-13 05:59N 48°43' W 122°31'0 0.0
2017-May-13 05:29N 48°43' W 122°31'0 0.0
2017-May-13 04:53N 48°43' W 122°31'0 0.0
2017-May-13 04:29N 48°43' W 122°31'  
Track history (hours):
 
Tides and Currents Weather Stations Pressure Air Temp Water Temp Dewpoint Dewpoint Depression Visibility Wind Speed Wind Dir Waves Ship Positions

Zodiac

Ship's website: http://www.schoonerzodiac.com/

Owner: VESSEL ZODIAC CORP, Bellingham, WA. More information available from US FCC via Universal Licensing System and Coast Guard Vessel Documentation Center.

Last reported at 2017-May-23 04:19 UTC. Time now 2017-May-23 04:56 UTC.
Position N 48°43' W 122°31'.

Type: Sailing vessel. MMSI: 366968070.

Date/timePositionNaut miles runAvg speedWind from/ knotsBaromVisibWave heightAir tempDewpointWater temp
2017-May-23 04:19N 48°43' W 122°31'0 0.0
2017-May-23 03:55N 48°43' W 122°31'0 0.0
2017-May-23 03:04N 48°43' W 122°31'0 0.0
2017-May-23 02:55N 48°43' W 122°31'0 0.0
2017-May-23 02:25N 48°43' W 122°31'0 0.0
2017-May-23 01:55N 48°43' W 122°31'0 0.0
2017-May-23 01:25N 48°43' W 122°31'0 0.0
2017-May-23 00:55N 48°43' W 122°31'0 0.0
2017-May-23 00:25N 48°43' W 122°31'0 0.0
2017-May-22 23:55N 48°43' W 122°31'0 0.0
2017-May-22 23:28N 48°43' W 122°31'0 0.0
2017-May-22 22:58N 48°43' W 122°31'0 0.0
2017-May-22 22:25N 48°43' W 122°31'0 0.0
2017-May-22 21:55N 48°43' W 122°31'0 0.0
2017-May-22 21:25N 48°43' W 122°31'0 0.0
2017-May-22 20:49N 48°43' W 122°31'0 0.0
2017-May-22 20:22N 48°43' W 122°31'0 0.0
2017-May-22 19:55N 48°43' W 122°31'0 0.0
2017-May-22 19:28N 48°43' W 122°31'0 0.0
2017-May-22 18:43N 48°43' W 122°31'0 0.0
2017-May-22 18:01N 48°43' W 122°31'0 0.0
2017-May-22 17:58N 48°43' W 122°31'0 0.0
2017-May-22 17:25N 48°43' W 122°31'0 0.0
2017-May-22 16:55N 48°43' W 122°31'0 0.0
2017-May-22 16:25N 48°43' W 122°31'0 0.0
2017-May-22 15:58N 48°43' W 122°31'0 0.0
2017-May-22 15:25N 48°43' W 122°31'0 0.0
2017-May-22 14:55N 48°43' W 122°31'0 0.0
2017-May-22 13:55N 48°43' W 122°31'0 0.0
2017-May-22 13:22N 48°43' W 122°31'0 0.0
2017-May-22 12:55N 48°43' W 122°31'0 0.0
2017-May-22 12:25N 48°43' W 122°31'0 0.0
2017-May-22 11:55N 48°43' W 122°31'0 0.0
2017-May-22 11:25N 48°43' W 122°31'0 0.0
2017-May-22 10:58N 48°43' W 122°31'0 0.0
2017-May-22 10:28N 48°43' W 122°31'0 0.0
2017-May-22 09:55N 48°43' W 122°31'0 0.0
2017-May-22 09:28N 48°43' W 122°31'0 0.0
2017-May-22 08:58N 48°43' W 122°31'0 0.0
2017-May-22 08:19N 48°43' W 122°31'0 0.0
2017-May-22 07:55N 48°43' W 122°31'0 0.0
2017-May-22 07:25N 48°43' W 122°31'0 0.0
2017-May-22 06:58N 48°43' W 122°31'0 0.0
2017-May-22 06:28N 48°43' W 122°31'0 0.0
2017-May-22 05:55N 48°43' W 122°31'0 0.0
2017-May-22 05:22N 48°43' W 122°31'0 0.0
2017-May-22 04:58N 48°43' W 122°31'0 0.0
2017-May-22 04:25N 48°43' W 122°31'0 0.0
2017-May-22 03:49N 48°43' W 122°31'0 0.0
2017-May-22 03:25N 48°43' W 122°31'0 0.0
2017-May-22 02:55N 48°43' W 122°31'0 0.0
2017-May-22 02:25N 48°43' W 122°31'0 0.0
2017-May-22 01:58N 48°43' W 122°31'0 0.0
2017-May-22 01:25N 48°43' W 122°31'0 0.0
2017-May-22 00:55N 48°43' W 122°31'0 0.0
2017-May-22 00:25N 48°43' W 122°31'0 0.0
2017-May-21 23:55N 48°43' W 122°31'0 0.0
2017-May-21 23:28N 48°43' W 122°31'0 0.0
2017-May-21 22:55N 48°43' W 122°31'0 0.0
2017-May-21 22:25N 48°43' W 122°31'0 0.1
2017-May-21 22:00N 48°43' W 122°31'2 4.2
2017-May-21 21:30N 48°42' W 122°33'3 5.4
2017-May-21 21:00N 48°39' W 122°33'2 4.5
2017-May-21 20:30N 48°38' W 122°37'3 6.4
2017-May-21 20:00N 48°40' W 122°41'2 4.3
2017-May-21 19:30N 48°40' W 122°44'2 4.5
2017-May-21 19:00N 48°41' W 122°48'1 2.5
2017-May-21 18:30N 48°42' W 122°48'2 3.0
2017-May-21 18:00N 48°43' W 122°50'4 1.7
2017-May-21 15:46N 48°46' W 122°54'0 0.0
2017-May-21 11:46N 48°46' W 122°54'0 0.0
2017-May-21 10:43N 48°46' W 122°54'0 0.0
2017-May-21 07:40N 48°46' W 122°54'0 0.0
2017-May-21 06:28N 48°46' W 122°54'0 0.0
2017-May-21 05:40N 48°46' W 122°54'0 0.0
2017-May-21 05:22N 48°46' W 122°54'0 0.0
2017-May-21 04:01N 48°46' W 122°54'0 0.1
2017-May-21 03:55N 48°46' W 122°54'0 0.0
2017-May-20 23:55N 48°46' W 122°54'0 0.1
2017-May-20 23:30N 48°46' W 122°54'0 0.1
2017-May-20 22:59N 48°46' W 122°54'2 4.8
2017-May-20 22:30N 48°44' W 122°56'3 6.0
2017-May-20 22:00N 48°42' W 122°59'2 4.6
2017-May-20 21:30N 48°40' W 123°00'3 5.8
2017-May-20 21:00N 48°37' W 123°02'3 6.0
2017-May-20 20:30N 48°34' W 123°02'1 1.7
2017-May-20 20:00N 48°34' W 123°01'1 1.2
2017-May-20 19:30N 48°34' W 123°00'1 1.9
2017-May-20 19:00N 48°33' W 122°59'1 2.0
2017-May-20 18:30N 48°33' W 122°58'1 2.0
2017-May-20 18:00N 48°32' W 122°57'2 4.9
2017-May-20 17:30N 48°34' W 122°54'2 4.5
2017-May-20 17:00N 48°35' W 122°51'1 1.2
2017-May-20 16:30N 48°34' W 122°52'2 3.2
2017-May-20 16:00N 48°33' W 122°51'0 0.6
2017-May-20 15:30N 48°32' W 122°51'0 0.0
2017-May-20 14:57N 48°32' W 122°51'0 0.0
2017-May-20 14:30N 48°32' W 122°51'0 0.0
2017-May-20 13:27N 48°32' W 122°51'0 0.0
2017-May-20 13:00N 48°32' W 122°51'0 0.0
2017-May-20 12:30N 48°32' W 122°51'0 0.0
2017-May-20 12:00N 48°32' W 122°51'0 0.0
2017-May-20 11:30N 48°32' W 122°51'0 0.0
2017-May-20 10:57N 48°32' W 122°51'0 0.0
2017-May-20 10:30N 48°32' W 122°51'0 0.0
2017-May-20 10:00N 48°32' W 122°51'0 0.0
2017-May-20 09:30N 48°32' W 122°51'0 0.0
2017-May-20 09:00N 48°32' W 122°51'0 0.0
2017-May-20 08:30N 48°32' W 122°51'0 0.0
2017-May-20 08:00N 48°32' W 122°51'0 0.0
2017-May-20 07:30N 48°32' W 122°51'0 0.0
2017-May-20 06:57N 48°32' W 122°51'0 0.0
2017-May-20 06:30N 48°32' W 122°51'0 0.0
2017-May-20 06:00N 48°32' W 122°51'0 0.0
2017-May-20 05:30N 48°32' W 122°51'0 0.0
2017-May-20 05:00N 48°32' W 122°51'0 0.0
2017-May-20 04:24N 48°32' W 122°51'0 0.0
2017-May-20 03:51N 48°32' W 122°51'0 0.0
2017-May-20 03:30N 48°32' W 122°51'0 0.0
2017-May-20 03:00N 48°32' W 122°51'0 0.0
2017-May-20 02:30N 48°32' W 122°51'0 0.0
2017-May-20 01:57N 48°32' W 122°51'0 0.0
2017-May-20 01:24N 48°32' W 122°51'0 0.0
2017-May-20 00:57N 48°32' W 122°51'0 0.0
2017-May-20 00:25N 48°32' W 122°51'0 0.0
2017-May-19 23:51N 48°32' W 122°51'0 0.0
2017-May-19 23:30N 48°32' W 122°51'1 2.6
2017-May-19 23:01N 48°34' W 122°50'1 2.9
2017-May-19 22:31N 48°35' W 122°50'3 5.4
2017-May-19 22:01N 48°36' W 122°46'1 2.5
2017-May-19 21:31N 48°37' W 122°44'2 3.8
2017-May-19 21:01N 48°38' W 122°42'1 2.7
2017-May-19 20:30N 48°39' W 122°41'1 2.0
2017-May-19 20:01N 48°40' W 122°40'1 1.9
2017-May-19 19:30N 48°39' W 122°41'1 1.7
2017-May-19 19:00N 48°39' W 122°40'1 2.2
2017-May-19 18:31N 48°39' W 122°38'3 5.8
2017-May-19 18:00N 48°39' W 122°34'5 9.0
2017-May-19 17:30N 48°43' W 122°31'0 0.5
2017-May-19 16:59N 48°43' W 122°31'0 0.0
2017-May-19 16:29N 48°43' W 122°31'0 0.0
2017-May-19 15:53N 48°43' W 122°31'0 0.0
2017-May-19 15:29N 48°43' W 122°31'0 0.0
2017-May-19 14:59N 48°43' W 122°31'0 0.0
2017-May-19 13:59N 48°43' W 122°31'0 0.0
2017-May-19 13:29N 48°43' W 122°31'0 0.0
2017-May-19 12:41N 48°43' W 122°31'0 0.0
2017-May-19 12:29N 48°43' W 122°31'0 0.0
2017-May-19 11:53N 48°43' W 122°31'0 0.0
2017-May-19 11:29N 48°43' W 122°31'0 0.0
2017-May-19 10:59N 48°43' W 122°31'0 0.0
2017-May-19 10:29N 48°43' W 122°31'0 0.0
2017-May-19 09:59N 48°43' W 122°31'0 0.0
2017-May-19 09:29N 48°43' W 122°31'0 0.0
2017-May-19 08:59N 48°43' W 122°31'0 0.0
2017-May-19 08:23N 48°43' W 122°31'0 0.0
2017-May-19 07:53N 48°43' W 122°31'0 0.0
2017-May-19 07:23N 48°43' W 122°31'0 0.0
2017-May-19 06:41N 48°43' W 122°31'0 0.0
2017-May-19 06:29N 48°43' W 122°31'0 0.0
2017-May-19 05:59N 48°43' W 122°31'0 0.0
2017-May-19 05:29N 48°43' W 122°31'0 0.0
2017-May-19 04:59N 48°43' W 122°31'0 0.0
2017-May-19 04:29N 48°43' W 122°31'0 0.0
2017-May-19 03:41N 48°43' W 122°31'0 0.0
2017-May-19 03:23N 48°43' W 122°31'0 0.0
2017-May-19 02:59N 48°43' W 122°31'0 0.0
2017-May-19 02:29N 48°43' W 122°31'0 0.0
2017-May-19 01:53N 48°43' W 122°31'0 0.0
2017-May-19 01:29N 48°43' W 122°31'0 0.0
2017-May-19 00:53N 48°43' W 122°31'0 0.0
2017-May-19 00:29N 48°43' W 122°31'0 0.0
2017-May-18 23:53N 48°43' W 122°31'0 0.0
2017-May-18 23:23N 48°43' W 122°31'0 0.0
2017-May-18 22:59N 48°43' W 122°31'0 0.0
2017-May-18 22:23N 48°43' W 122°31'0 0.0
2017-May-18 21:59N 48°43' W 122°31'0 0.0
2017-May-18 21:29N 48°43' W 122°31'0 0.0
2017-May-18 20:59N 48°43' W 122°31'0 0.0
2017-May-18 20:29N 48°43' W 122°31'0 0.0
2017-May-18 19:59N 48°43' W 122°31'0 0.0
2017-May-18 19:29N 48°43' W 122°31'0 0.0
2017-May-18 18:59N 48°43' W 122°31'0 0.0
2017-May-18 18:29N 48°43' W 122°31'0 0.0
2017-May-18 17:53N 48°43' W 122°31'0 0.0
2017-May-18 17:23N 48°43' W 122°31'0 0.0
2017-May-18 16:41N 48°43' W 122°31'0 0.0
2017-May-18 16:29N 48°43' W 122°31'0 0.0
2017-May-18 15:59N 48°43' W 122°31'0 0.0
2017-May-18 15:29N 48°43' W 122°31'0 0.0
2017-May-18 14:53N 48°43' W 122°31'0 0.0
2017-May-18 14:29N 48°43' W 122°31'0 0.0
2017-May-18 13:29N 48°43' W 122°31'0 0.0
2017-May-18 12:59N 48°43' W 122°31'0 0.0
2017-May-18 12:29N 48°43' W 122°31'0 0.0
2017-May-18 11:59N 48°43' W 122°31'0 0.0
2017-May-18 11:23N 48°43' W 122°31'0 0.0
2017-May-18 10:59N 48°43' W 122°31'0 0.0
2017-May-18 10:29N 48°43' W 122°31'0 0.0
2017-May-18 09:59N 48°43' W 122°31'0 0.0
2017-May-18 09:29N 48°43' W 122°31'0 0.0
2017-May-18 08:59N 48°43' W 122°31'0 0.0
2017-May-18 08:29N 48°43' W 122°31'0 0.0
2017-May-18 07:53N 48°43' W 122°31'0 0.0
2017-May-18 07:29N 48°43' W 122°31'0 0.0
2017-May-18 06:59N 48°43' W 122°31'0 0.0
2017-May-18 06:29N 48°43' W 122°31'0 0.0
2017-May-18 05:59N 48°43' W 122°31'0 0.0
2017-May-18 05:29N 48°43' W 122°31'0 0.0
2017-May-18 04:53N 48°43' W 122°31'0 0.0
2017-May-18 04:29N 48°43' W 122°31'0 0.0
2017-May-18 03:59N 48°43' W 122°31'0 0.0
2017-May-18 03:29N 48°43' W 122°31'0 0.0
2017-May-18 02:53N 48°43' W 122°31'0 0.0
2017-May-18 02:23N 48°43' W 122°31'0 0.0
2017-May-18 01:59N 48°43' W 122°31'0 0.0
2017-May-18 01:29N 48°43' W 122°31'0 0.0
2017-May-18 00:59N 48°43' W 122°31'0 0.0
2017-May-18 00:23N 48°43' W 122°31'0 0.1
2017-May-17 23:41N 48°43' W 122°31'0 0.8
2017-May-17 23:29N 48°43' W 122°31'2 4.0
2017-May-17 22:55N 48°41' W 122°31'0 0.0
2017-May-17 22:13N 48°41' W 122°31'0 0.0
2017-May-17 21:58N 48°41' W 122°31'0 0.0
2017-May-17 21:07N 48°41' W 122°31'0 0.0
2017-May-17 20:55N 48°41' W 122°31'0 0.0
2017-May-17 20:28N 48°41' W 122°31'0 0.0
2017-May-17 19:55N 48°41' W 122°31'0 0.0
2017-May-17 19:28N 48°41' W 122°31'0 0.9
2017-May-17 19:00N 48°42' W 122°31'2 3.2
2017-May-17 18:25N 48°43' W 122°31'0 0.0
2017-May-17 17:58N 48°43' W 122°31'0 0.0
2017-May-17 17:10N 48°43' W 122°31'0 0.0
2017-May-17 16:58N 48°43' W 122°31'0 0.0
2017-May-17 16:10N 48°43' W 122°31'0 0.0
2017-May-17 15:58N 48°43' W 122°31'0 0.0
2017-May-17 15:28N 48°43' W 122°31'0 0.0
2017-May-17 14:58N 48°43' W 122°31'0 0.0
2017-May-17 13:58N 48°43' W 122°31'0 0.0
2017-May-17 13:28N 48°43' W 122°31'0 0.0
2017-May-17 12:58N 48°43' W 122°31'0 0.0
2017-May-17 12:28N 48°43' W 122°31'0 0.0
2017-May-17 11:58N 48°43' W 122°31'0 0.0
2017-May-17 11:22N 48°43' W 122°31'0 0.0
2017-May-17 10:58N 48°43' W 122°31'0 0.0
2017-May-17 10:28N 48°43' W 122°31'0 0.0
2017-May-17 09:58N 48°43' W 122°31'0 0.0
2017-May-17 09:28N 48°43' W 122°31'0 0.0
2017-May-17 08:58N 48°43' W 122°31'0 0.0
2017-May-17 08:28N 48°43' W 122°31'0 0.0
2017-May-17 07:58N 48°43' W 122°31'0 0.0
2017-May-17 07:28N 48°43' W 122°31'0 0.0
2017-May-17 06:58N 48°43' W 122°31'0 0.0
2017-May-17 06:28N 48°43' W 122°31'0 0.0
2017-May-17 05:58N 48°43' W 122°31'0 0.0
2017-May-17 05:28N 48°43' W 122°31'0 0.0
2017-May-17 04:58N 48°43' W 122°31'0 0.0
2017-May-17 04:28N 48°43' W 122°31'0 0.0
2017-May-17 03:58N 48°43' W 122°31'0 0.0
2017-May-17 03:28N 48°43' W 122°31'0 0.0
2017-May-17 02:58N 48°43' W 122°31'0 0.0
2017-May-17 02:28N 48°43' W 122°31'0 0.0
2017-May-17 01:58N 48°43' W 122°31'0 0.0
2017-May-17 01:28N 48°43' W 122°31'0 0.0
2017-May-17 00:58N 48°43' W 122°31'0 0.0
2017-May-17 00:28N 48°43' W 122°31'0 0.0
2017-May-16 23:58N 48°43' W 122°31'0 0.0
2017-May-16 23:28N 48°43' W 122°31'0 0.0
2017-May-16 22:58N 48°43' W 122°31'0 0.0
2017-May-16 22:28N 48°43' W 122°31'0 0.0
2017-May-16 21:58N 48°43' W 122°31'0 0.0
2017-May-16 21:28N 48°43' W 122°31'0 0.0
2017-May-16 20:40N 48°43' W 122°31'0 0.0
2017-May-16 20:28N 48°43' W 122°31'0 0.0
2017-May-16 19:58N 48°43' W 122°31'0 0.0
2017-May-16 19:28N 48°43' W 122°31'0 0.0
2017-May-16 18:58N 48°43' W 122°31'0 0.0
2017-May-16 18:10N 48°43' W 122°31'0 0.0
2017-May-16 17:58N 48°43' W 122°31'0 0.0
2017-May-16 17:22N 48°43' W 122°31'0 0.0
2017-May-16 16:58N 48°43' W 122°31'0 0.0
2017-May-16 16:28N 48°43' W 122°31'0 0.0
2017-May-16 15:34N 48°43' W 122°31'0 0.0
2017-May-16 15:22N 48°43' W 122°31'0 0.0
2017-May-16 14:58N 48°43' W 122°31'0 0.0
2017-May-16 13:58N 48°43' W 122°31'0 0.0
2017-May-16 13:28N 48°43' W 122°31'0 0.0
2017-May-16 12:40N 48°43' W 122°31'0 0.0
2017-May-16 12:28N 48°43' W 122°31'0 0.0
2017-May-16 11:58N 48°43' W 122°31'0 0.0
2017-May-16 11:28N 48°43' W 122°31'0 0.0
2017-May-16 10:58N 48°43' W 122°31'0 0.0
2017-May-16 10:28N 48°43' W 122°31'0 0.0
2017-May-16 09:52N 48°43' W 122°31'0 0.0
2017-May-16 09:28N 48°43' W 122°31'0 0.0
2017-May-16 08:58N 48°43' W 122°31'0 0.0
2017-May-16 08:10N 48°43' W 122°31'0 0.0
2017-May-16 07:58N 48°43' W 122°31'0 0.0
2017-May-16 07:10N 48°43' W 122°31'0 0.0
2017-May-16 06:58N 48°43' W 122°31'0 0.0
2017-May-16 06:28N 48°43' W 122°31'0 0.0
2017-May-16 05:58N 48°43' W 122°31'0 0.0
2017-May-16 05:10N 48°43' W 122°31'0 0.0
2017-May-16 04:58N 48°43' W 122°31'0 0.0
2017-May-16 04:28N 48°43' W 122°31'0 0.0
2017-May-16 03:58N 48°43' W 122°31'0 0.0
2017-May-16 03:22N 48°43' W 122°31'0 0.0
2017-May-16 02:52N 48°43' W 122°31'0 0.0
2017-May-16 02:28N 48°43' W 122°31'0 0.0
2017-May-16 01:40N 48°43' W 122°31'0 0.0
2017-May-16 01:22N 48°43' W 122°31'0 0.0
2017-May-16 00:58N 48°43' W 122°31'0 0.0
2017-May-16 00:28N 48°43' W 122°31'0 0.0
2017-May-15 23:52N 48°43' W 122°31'0 0.0
2017-May-15 23:10N 48°43' W 122°31'0 0.0
2017-May-15 22:52N 48°43' W 122°31'0 0.0
2017-May-15 22:28N 48°43' W 122°31'0 0.0
2017-May-15 21:52N 48°43' W 122°31'0 0.0
2017-May-15 21:28N 48°43' W 122°31'0 0.0
2017-May-15 20:58N 48°43' W 122°31'0 0.0
2017-May-15 20:28N 48°43' W 122°31'0 0.0
2017-May-15 19:58N 48°43' W 122°31'0 0.0
2017-May-15 19:22N 48°43' W 122°31'0 0.0
2017-May-15 18:52N 48°43' W 122°31'0 0.0
2017-May-15 18:22N 48°43' W 122°31'0 0.0
2017-May-15 17:52N 48°43' W 122°31'0 0.0
2017-May-15 17:28N 48°43' W 122°31'0 0.0
2017-May-15 16:58N 48°43' W 122°31'0 0.0
2017-May-15 16:19N 48°43' W 122°31'0 0.0
2017-May-15 15:52N 48°43' W 122°31'0 0.0
2017-May-15 15:28N 48°43' W 122°31'0 0.0
2017-May-15 14:58N 48°43' W 122°31'0 0.0
2017-May-15 13:58N 48°43' W 122°31'0 0.0
2017-May-15 13:28N 48°43' W 122°31'0 0.0
2017-May-15 12:52N 48°43' W 122°31'0 0.0
2017-May-15 12:28N 48°43' W 122°31'0 0.0
2017-May-15 11:58N 48°43' W 122°31'0 0.0
2017-May-15 11:28N 48°43' W 122°31'0 0.0
2017-May-15 10:58N 48°43' W 122°31'0 0.0
2017-May-15 10:22N 48°43' W 122°31'0 0.0
2017-May-15 09:58N 48°43' W 122°31'0 0.0
2017-May-15 09:28N 48°43' W 122°31'0 0.0
2017-May-15 08:58N 48°43' W 122°31'0 0.0
2017-May-15 08:28N 48°43' W 122°31'0 0.0
2017-May-15 07:58N 48°43' W 122°31'0 0.0
2017-May-15 07:22N 48°43' W 122°31'0 0.0
2017-May-15 06:52N 48°43' W 122°31'0 0.0
2017-May-15 06:22N 48°43' W 122°31'0 0.0
2017-May-15 05:52N 48°43' W 122°31'0 0.0
2017-May-15 05:28N 48°43' W 122°31'0 0.0
2017-May-15 04:52N 48°43' W 122°31'0 0.0
2017-May-15 04:28N 48°43' W 122°31'0 0.0
2017-May-15 03:58N 48°43' W 122°31'0 0.0
2017-May-15 03:28N 48°43' W 122°31'0 0.0
2017-May-15 02:52N 48°43' W 122°31'0 0.0
2017-May-15 02:28N 48°43' W 122°31'0 0.0
2017-May-15 01:58N 48°43' W 122°31'0 0.0
2017-May-15 01:22N 48°43' W 122°31'0 0.0
2017-May-15 00:58N 48°43' W 122°31'0 0.0
2017-May-15 00:28N 48°43' W 122°31'0 0.0
2017-May-14 23:58N 48°43' W 122°31'0 0.0
2017-May-14 23:28N 48°43' W 122°31'0 0.0
2017-May-14 22:58N 48°43' W 122°31'0 0.0
2017-May-14 22:22N 48°43' W 122°31'0 0.0
2017-May-14 21:52N 48°43' W 122°31'0 0.0
2017-May-14 21:28N 48°43' W 122°31'0 0.0
2017-May-14 21:00N 48°43' W 122°31'0 0.0
2017-May-14 20:30N 48°43' W 122°31'1 1.3
2017-May-14 19:54N 48°43' W 122°32'1 3.0
2017-May-14 19:30N 48°42' W 122°33'2 4.7
2017-May-14 19:00N 48°40' W 122°30'1 2.7
2017-May-14 18:29N 48°40' W 122°32'1 1.1
2017-May-14 18:00N 48°41' W 122°33'2 3.7
2017-May-14 17:30N 48°42' W 122°32'1 1.9
2017-May-14 16:53N 48°43' W 122°31'0 0.0
2017-May-14 16:23N 48°43' W 122°31'0 0.0
2017-May-14 15:59N 48°43' W 122°31'0 0.0
2017-May-14 15:29N 48°43' W 122°31'0 0.0
2017-May-14 14:59N 48°43' W 122°31'0 0.0
2017-May-14 14:29N 48°43' W 122°31'0 0.0
2017-May-14 13:29N 48°43' W 122°31'0 0.0
2017-May-14 12:59N 48°43' W 122°31'0 0.0
2017-May-14 12:29N 48°43' W 122°31'0 0.0
2017-May-14 11:59N 48°43' W 122°31'0 0.0
2017-May-14 11:20N 48°43' W 122°31'0 0.0
2017-May-14 10:59N 48°43' W 122°31'0 0.0
2017-May-14 10:29N 48°43' W 122°31'0 0.0
2017-May-14 09:50N 48°43' W 122°31'0 0.0
2017-May-14 09:29N 48°43' W 122°31'0 0.0
2017-May-14 08:59N 48°43' W 122°31'0 0.0
2017-May-14 08:20N 48°43' W 122°31'0 0.0
2017-May-14 07:59N 48°43' W 122°31'0 0.0
2017-May-14 07:23N 48°43' W 122°31'0 0.0
2017-May-14 06:59N 48°43' W 122°31'0 0.0
2017-May-14 06:23N 48°43' W 122°31'0 0.0
2017-May-14 05:59N 48°43' W 122°31'0 0.0
2017-May-14 05:29N 48°43' W 122°31'0 0.0
2017-May-14 04:50N 48°43' W 122°31'0 0.0
2017-May-14 04:29N 48°43' W 122°31'0 0.0
2017-May-14 03:53N 48°43' W 122°31'0 0.0
2017-May-14 03:29N 48°43' W 122°31'0 0.0
2017-May-14 02:50N 48°43' W 122°31'0 0.0
2017-May-14 02:29N 48°43' W 122°31'0 0.0
2017-May-14 01:59N 48°43' W 122°31'0 0.0
2017-May-14 01:29N 48°43' W 122°31'0 0.0
2017-May-14 00:53N 48°43' W 122°31'0 0.0
2017-May-14 00:29N 48°43' W 122°31'0 0.0
2017-May-13 23:59N 48°43' W 122°31'0 0.0
2017-May-13 23:29N 48°43' W 122°31'0 0.0
2017-May-13 22:59N 48°43' W 122°31'0 0.0
2017-May-13 22:29N 48°43' W 122°31'0 0.0
2017-May-13 21:59N 48°43' W 122°31'0 0.0
2017-May-13 21:29N 48°43' W 122°31'0 0.0
2017-May-13 20:53N 48°43' W 122°31'0 0.0
2017-May-13 20:29N 48°43' W 122°31'0 0.0
2017-May-13 19:53N 48°43' W 122°31'0 0.0
2017-May-13 19:29N 48°43' W 122°31'0 0.0
2017-May-13 18:59N 48°43' W 122°31'0 0.0
2017-May-13 18:23N 48°43' W 122°31'0 0.0
2017-May-13 17:59N 48°43' W 122°31'0 0.0
2017-May-13 17:23N 48°43' W 122°31'0 0.0
2017-May-13 16:59N 48°43' W 122°31'0 0.0
2017-May-13 16:29N 48°43' W 122°31'0 0.0
2017-May-13 15:53N 48°43' W 122°31'0 0.0
2017-May-13 15:29N 48°43' W 122°31'0 0.0
2017-May-13 14:50N 48°43' W 122°31'0 0.0
2017-May-13 14:29N 48°43' W 122°31'0 0.0
2017-May-13 13:29N 48°43' W 122°31'0 0.0
2017-May-13 12:59N 48°43' W 122°31'0 0.0
2017-May-13 12:23N 48°43' W 122°31'0 0.0
2017-May-13 11:50N 48°43' W 122°31'0 0.0
2017-May-13 11:29N 48°43' W 122°31'0 0.0
2017-May-13 10:59N 48°43' W 122°31'0 0.0
2017-May-13 10:29N 48°43' W 122°31'0 0.0
2017-May-13 09:53N 48°43' W 122°31'0 0.0
2017-May-13 09:29N 48°43' W 122°31'0 0.0
2017-May-13 08:59N 48°43' W 122°31'0 0.0
2017-May-13 08:23N 48°43' W 122°31'0 0.0
2017-May-13 07:59N 48°43' W 122°31'0 0.0
2017-May-13 07:29N 48°43' W 122°31'0 0.0
2017-May-13 06:59N 48°43' W 122°31'0 0.0
2017-May-13 06:23N 48°43' W 122°31'0 0.0
2017-May-13 05:59N 48°43' W 122°31'0 0.0
2017-May-13 05:29N 48°43' W 122°31'0 0.0
2017-May-13 04:53N 48°43' W 122°31'0 0.0
2017-May-13 04:29N 48°43' W 122°31'  

Dump ship's entire track history